createdAt,value
2023-04-18T00:07:59.723Z,18.32
2023-04-18T00:18:04.192Z,18.28
2023-04-18T00:28:22.641Z,18.34
2023-04-18T00:38:34.841Z,18.29
2023-04-18T00:48:36.666Z,18.28
2023-04-18T00:58:51.844Z,18.24
2023-04-18T01:08:55.738Z,18.28
2023-04-18T01:18:58.277Z,18.27
2023-04-18T01:29:01.687Z,18.26
2023-04-18T01:39:04.943Z,18.26
2023-04-18T01:49:08.484Z,18.29
2023-04-18T01:59:13.029Z,18.26
2023-04-18T02:09:14.380Z,18.23
2023-04-18T02:19:17.589Z,18.26
2023-04-18T02:29:19.212Z,18.24
2023-04-18T02:39:20.678Z,18.27
2023-04-18T02:49:28.095Z,18.26
2023-04-18T03:20:00.873Z,18.22
2023-04-18T03:30:03.677Z,18.19
2023-04-18T03:50:22.194Z,18.16
2023-04-18T04:00:32.409Z,18.17
2023-04-18T04:10:37.200Z,18.10
2023-04-18T04:20:38.543Z,18.14
2023-04-18T04:30:44.458Z,18.12
2023-04-18T04:40:55.962Z,18.10
2023-04-18T04:51:22.378Z,18.20
2023-04-18T05:01:21.818Z,18.17
2023-04-18T05:11:23.219Z,18.08
2023-04-18T05:21:24.531Z,18.14
2023-04-18T05:31:25.932Z,18.38
2023-04-18T05:41:37.406Z,18.54
2023-04-18T05:51:38.662Z,18.58
2023-04-18T06:01:41.326Z,18.65
2023-04-18T06:11:42.801Z,18.57
2023-04-18T06:21:44.164Z,18.70
2023-04-18T06:31:47.326Z,18.63
2023-04-18T06:41:51.610Z,18.66
2023-04-18T06:51:53.017Z,18.65
2023-04-18T07:01:54.669Z,18.66
2023-04-18T07:11:57.951Z,18.65
2023-04-18T07:21:59.370Z,18.60
2023-04-18T07:32:02.654Z,18.58
2023-04-18T07:42:03.912Z,18.77
2023-04-18T07:52:05.186Z,18.81
2023-04-18T08:02:06.643Z,18.96
2023-04-18T08:12:08.030Z,18.96
2023-04-18T08:22:09.369Z,18.90
2023-04-18T08:32:10.882Z,18.82
2023-04-18T08:42:12.224Z,18.88
2023-04-18T08:52:13.531Z,18.85
2023-04-18T09:02:15.046Z,18.92
2023-04-18T09:12:16.360Z,18.97
2023-04-18T09:22:17.630Z,18.91
2023-04-18T09:32:18.995Z,18.88
2023-04-18T09:42:20.293Z,18.82
2023-04-18T09:52:23.918Z,18.89
2023-04-18T10:02:25.268Z,18.92
2023-04-18T10:12:26.577Z,18.79
2023-04-18T10:22:27.846Z,18.82
2023-04-18T10:32:29.153Z,18.76
2023-04-18T10:42:32.812Z,18.95
2023-04-18T10:52:34.115Z,18.90
2023-04-18T11:02:35.737Z,18.93
2023-04-18T11:12:37.095Z,18.91
2023-04-18T11:22:38.751Z,18.94
2023-04-18T11:32:40.120Z,18.94
2023-04-18T11:42:41.464Z,18.91
2023-04-18T11:52:42.963Z,18.95
2023-04-18T12:02:51.791Z,18.91
2023-04-18T12:13:01.570Z,19.01
2023-04-18T12:23:05.801Z,19.06
2023-04-18T12:33:13.833Z,18.97
2023-04-18T12:43:22.817Z,19.00
2023-04-18T12:53:30.710Z,18.92
2023-04-18T13:03:39.059Z,18.91
2023-04-18T13:13:50.922Z,18.94
2023-04-18T13:44:48.068Z,18.94
2023-04-18T13:54:49.544Z,18.81
2023-04-18T14:04:55.667Z,18.85
2023-04-18T14:14:58.781Z,18.89
2023-04-18T14:25:12.201Z,18.84
2023-04-18T14:35:26.915Z,18.86
2023-04-18T14:45:38.967Z,18.81
2023-04-18T14:55:43.996Z,18.86
2023-04-18T15:05:45.469Z,18.76
2023-04-18T15:15:55.640Z,18.69
2023-04-18T15:25:57.651Z,18.69
2023-04-18T15:36:10.028Z,18.78
2023-04-18T15:46:19.569Z,18.80
2023-04-18T15:56:31.227Z,18.73
2023-04-18T16:16:54.792Z,18.75
2023-04-18T16:26:56.135Z,18.71
2023-04-18T16:36:57.629Z,18.68
2023-04-18T16:47:08.691Z,18.68
2023-04-18T16:57:15.748Z,18.65
2023-04-18T17:07:26.685Z,18.66
2023-04-18T17:17:34.817Z,18.60
2023-04-18T17:27:57.649Z,18.63
2023-04-18T17:48:15.079Z,18.59
2023-04-18T17:58:51.310Z,18.56
2023-04-18T18:29:43.467Z,18.50
2023-04-18T18:39:45.245Z,18.46
2023-04-18T18:49:48.002Z,18.41
2023-04-18T18:59:49.348Z,18.43
2023-04-18T19:10:01.375Z,18.36
2023-04-18T19:30:18.373Z,18.38
2023-04-18T19:40:19.862Z,18.34
2023-04-18T19:50:21.289Z,18.35
2023-04-18T20:00:22.658Z,18.34
2023-04-18T20:10:28.618Z,18.33
2023-04-18T20:20:35.070Z,18.37
2023-04-18T20:30:39.433Z,18.40
2023-04-18T20:40:43.764Z,18.36
2023-04-18T20:50:45.229Z,18.39
2023-04-18T21:00:46.589Z,18.38
2023-04-18T21:10:48.021Z,18.34
2023-04-18T21:20:49.396Z,18.34
2023-04-18T21:30:50.776Z,18.31
2023-04-18T21:40:52.138Z,18.32
2023-04-18T21:50:53.427Z,18.30
2023-04-18T22:00:54.902Z,18.28
2023-04-18T22:10:56.337Z,18.30
2023-04-18T22:20:57.798Z,18.27
2023-04-18T22:30:59.192Z,18.23
2023-04-18T22:41:02.736Z,18.28
2023-04-18T22:51:04.286Z,18.24
2023-04-18T23:01:07.231Z,18.23
2023-04-18T23:11:10.392Z,18.21
2023-04-18T23:21:13.717Z,18.22
2023-04-18T23:31:15.105Z,18.22
2023-04-18T23:41:16.408Z,18.20
2023-04-18T23:51:17.784Z,18.23
